This is the latest recevied weather packets stored in our database for station/object DC1MAK-13. If no packets are shown the sender has not sent any weather packets the latest 10 day(s).
| Time | Temp. | Humidity | Pressure | Rain* | Wind** | Luminosity | Snow |
|---|---|---|---|---|---|---|---|
| 1788017903 | 27.78° C | 43% | 986.3 hPa | - | - | - | - |
| 1788017607 | 26.11° C | 45% | 986.3 hPa | - | - | - | - |
| 1788017307 | 25.56° C | 48% | 986.3 hPa | - | - | - | - |
| 1788017296 | 25.56° C | 48% | 986.3 hPa | - | - | - | - |
| 1788016998 | 24.44° C | 49% | 986.4 hPa | - | - | - | - |
| 1788016695 | 24.44° C | 50% | 986.5 hPa | - | - | - | - |
| 1788016689 | 24.44° C | 50% | 986.5 hPa | - | - | - | - |
| 1788016392 | 24.44° C | 51% | 986.4 hPa | - | - | - | - |
| 1788015787 | 24.44° C | 49% | 986.4 hPa | - | - | - | - |
| 1788015779 | 24.44° C | 49% | 986.4 hPa | - | - | - | - |
| 1788015487 | 23.89° C | 52% | 986.5 hPa | - | - | - | - |
| 1788015475 | 23.89° C | 52% | 986.5 hPa | - | - | - | - |
| 1788015178 | 23.89° C | 52% | 986.6 hPa | - | - | - | - |
| 1788014874 | 23.89° C | 52% | 986.5 hPa | - | - | - | - |
| 1788014571 | 23.33° C | 53% | 986.4 hPa | - | - | - | - |
| 1788014262 | 23.89° C | 52% | 986.4 hPa | - | - | - | - |
| 1788013967 | 23.33° C | 52% | 986.3 hPa | - | - | - | - |
| 1788013660 | 24.44° C | 50% | 986.4 hPa | - | - | - | - |
| 1788013655 | 24.44° C | 50% | 986.4 hPa | - | - | - | - |
| 1788013357 | 25° C | 49% | 986.4 hPa | - | - | - | - |
| 1788013054 | 26.11° C | 46% | 986.5 hPa | - | - | - | - |
| 1788012750 | 26.11° C | 47% | 986.5 hPa | - | - | - | - |
| 1788012744 | 26.11° C | 47% | 986.5 hPa | - | - | - | - |
| 1788012147 | 24.44° C | 50% | 986.4 hPa | - | - | - | - |
| 1788012137 | 24.44° C | 50% | 986.4 hPa | - | - | - | - |
* Rain since midnight (hover to see other rain measurements)
** Current wind speed in m/s (hover to see current wind gust speed)